Coral Leaf — PHNI — position and weather

sailwx.info

Track history (hours):
 
Tides and Currents Weather Stations Pressure Air Temp Water Temp Dewpoint Dewpoint Depression Visibility Wind Speed Wind Dir Waves Ship Positions

Coral Leaf

Last reported at 2016-Jun-28 13:06 UTC. Time now 2016-Jun-28 15:15 UTC.
Position N 57°40' E 010°42'.

Length 108 m; draft 5.3 m.

Type: Ship (hazmat cat A). MMSI: 244036000.

Date/timePositionNaut miles runAvg speedWind from/ knotsBaromVisibWave heightAir tempDewpointWater temp
2016-Jun-28 13:06N 57°40' E 010°42'0 0.0
2016-Jun-28 11:21N 57°40' E 010°42'0 0.0
2016-Jun-28 10:15N 57°40' E 010°42'0 0.0
2016-Jun-28 09:27N 57°40' E 010°42'0 0.0
2016-Jun-28 08:27N 57°40' E 010°42'0 0.0
2016-Jun-28 07:12N 57°40' E 010°42'0 0.0
2016-Jun-28 04:33N 57°40' E 010°42'0 0.0
2016-Jun-28 03:20N 57°40' E 010°42'0 0.0
2016-Jun-27 20:32N 57°40' E 010°42'0 0.1
2016-Jun-27 19:20N 57°40' E 010°42'0 0.0
2016-Jun-27 18:32N 57°40' E 010°42'0 0.0
2016-Jun-27 16:08N 57°40' E 010°42'0 0.0
2016-Jun-27 15:20N 57°40' E 010°42'0 0.0
2016-Jun-27 14:32N 57°40' E 010°42'0 0.0
2016-Jun-27 13:32N 57°40' E 010°42'0 0.0
2016-Jun-27 12:17N 57°40' E 010°42'0 0.0
2016-Jun-27 10:11N 57°40' E 010°42'0 0.0
2016-Jun-27 06:19N 57°40' E 010°42'0 0.0
2016-Jun-27 04:31N 57°40' E 010°42'0 0.0
2016-Jun-27 00:25N 57°40' E 010°42'0 0.0
2016-Jun-26 23:31N 57°40' E 010°42'0 0.1
2016-Jun-26 22:25N 57°40' E 010°42'0 0.0
2016-Jun-26 21:25N 57°40' E 010°42'0 0.0
2016-Jun-26 20:31N 57°40' E 010°42'0 0.1
2016-Jun-26 19:25N 57°40' E 010°42'0 0.0
2016-Jun-26 18:07N 57°40' E 010°42'3 6.1
2016-Jun-26 17:33N 57°43' E 010°45'1212.3
2016-Jun-26 16:33N 57°47' E 010°23'16711.8
2016-Jun-26 02:29N 55°42' E 007°01'8 7.3
2016-Jun-26 01:27N 55°35' E 007°02'6 7.1
2016-Jun-26 00:33N 55°28' E 007°02'7 6.8
2016-Jun-25 23:33N 55°22' E 007°03'7 7.2
2016-Jun-25 22:33N 55°14' E 007°03'7 7.1
2016-Jun-25 21:33N 55°07' E 007°04'7 7.2
2016-Jun-25 20:34N 55°00' E 007°08'7 7.1
2016-Jun-25 19:33N 54°54' E 007°11'7 7.4
2016-Jun-25 18:33N 54°46' E 007°14'7 7.2
2016-Jun-25 17:34N 54°40' E 007°17'7 7.5
2016-Jun-25 16:33N 54°32' E 007°20'8 7.6
2016-Jun-25 15:33N 54°25' E 007°24'7 7.5
2016-Jun-25 14:33N 54°18' E 007°28'7 6.9
2016-Jun-25 13:33N 54°12' E 007°34'7 6.9
2016-Jun-25 12:34N 54°08' E 007°44'6 6.4
2016-Jun-25 11:33N 54°05' E 007°53'6 6.3
2016-Jun-25 10:33N 54°03' E 008°03'4 3.8
2016-Jun-25 09:33N 54°02' E 008°10'0 0.0
2016-Jun-25 08:33N 54°02' E 008°09'0 0.0
2016-Jun-25 07:33N 54°02' E 008°09'0 0.0
2016-Jun-25 06:33N 54°02' E 008°09'0 0.0
2016-Jun-25 05:33N 54°02' E 008°09'0 0.0
2016-Jun-25 04:33N 54°02' E 008°09'0 0.1
2016-Jun-25 03:33N 54°02' E 008°10'0 0.1
2016-Jun-25 02:33N 54°02' E 008°10'0 0.1
2016-Jun-25 01:33N 54°02' E 008°10'0 0.0
2016-Jun-25 00:33N 54°02' E 008°10'0 0.0
2016-Jun-24 23:33N 54°02' E 008°10'0 0.0
2016-Jun-24 22:32N 54°02' E 008°10'0 0.1
2016-Jun-24 21:32N 54°02' E 008°10'0 0.0
2016-Jun-24 20:32N 54°02' E 008°10'0 0.0
2016-Jun-24 19:29N 54°02' E 008°09'0 0.0
2016-Jun-24 18:32N 54°02' E 008°10'0 0.0
2016-Jun-24 17:32N 54°02' E 008°10'0 0.0
2016-Jun-24 16:32N 54°02' E 008°09'0 0.1
2016-Jun-24 15:29N 54°02' E 008°10'0 0.1
2016-Jun-24 14:32N 54°02' E 008°10'0 0.0
2016-Jun-24 13:32N 54°02' E 008°10'0 0.0
2016-Jun-24 12:32N 54°02' E 008°10'0 0.0
2016-Jun-24 11:32N 54°02' E 008°10'0 0.0
2016-Jun-24 10:32N 54°02' E 008°10'0 0.0
2016-Jun-24 09:32N 54°02' E 008°10'0 0.1
2016-Jun-24 08:32N 54°02' E 008°10'0 0.0
2016-Jun-24 07:29N 54°02' E 008°10'0 0.0
2016-Jun-24 04:31N 54°02' E 008°09'0 0.0
2016-Jun-24 03:31N 54°02' E 008°10'0 0.0
2016-Jun-24 02:28N 54°02' E 008°10'0 0.0
2016-Jun-24 01:31N 54°02' E 008°10'0 0.1
2016-Jun-24 00:31N 54°02' E 008°10'0 0.0
2016-Jun-23 23:32N 54°02' E 008°10'0 0.0
2016-Jun-23 22:31N 54°02' E 008°10'0 0.1
2016-Jun-23 21:28N 54°02' E 008°10'0 0.0
2016-Jun-23 20:28N 54°02' E 008°10'0 0.0
2016-Jun-23 19:31N 54°02' E 008°10'0 0.0
2016-Jun-23 18:32N 54°02' E 008°10'0 0.0
2016-Jun-23 17:31N 54°02' E 008°10'0 0.0
2016-Jun-23 16:31N 54°02' E 008°09'0 0.0
2016-Jun-23 15:33N 54°02' E 008°10'0 0.1
2016-Jun-23 14:33N 54°02' E 008°10'0 0.1
2016-Jun-23 13:33N 54°02' E 008°10'0 0.0
2016-Jun-23 12:33N 54°02' E 008°10'0 0.0
2016-Jun-23 11:33N 54°02' E 008°10'0 0.0
2016-Jun-23 10:33N 54°02' E 008°10'0 0.0
2016-Jun-23 09:34N 54°02' E 008°10'0 0.2
2016-Jun-23 08:33N 54°02' E 008°09'0 0.0
2016-Jun-23 07:33N 54°02' E 008°09'0 0.0
2016-Jun-23 05:33N 54°02' E 008°09'0 0.0
2016-Jun-23 04:27N 54°02' E 008°09'0 0.0
2016-Jun-23 03:33N 54°02' E 008°09'0 0.0
2016-Jun-23 02:33N 54°02' E 008°09'0 0.0
2016-Jun-23 01:30N 54°02' E 008°10'0 0.0
2016-Jun-23 00:29N 54°02' E 008°10'0 0.1
2016-Jun-22 23:32N 54°02' E 008°10'0 0.0
2016-Jun-22 22:32N 54°02' E 008°10'0 0.0
2016-Jun-22 21:32N 54°02' E 008°10'0 0.1
2016-Jun-22 20:32N 54°02' E 008°10'0 0.0
2016-Jun-22 19:32N 54°02' E 008°09'0 0.0
2016-Jun-22 18:32N 54°02' E 008°09'0 0.0
2016-Jun-22 17:32N 54°02' E 008°09'0 0.0
2016-Jun-22 16:32N 54°02' E 008°09'0 0.0
2016-Jun-22 15:32N 54°02' E 008°09'0 0.0
2016-Jun-22 14:32N 54°02' E 008°09'0 0.1
2016-Jun-22 13:32N 54°02' E 008°10'0 0.0
2016-Jun-22 12:32N 54°02' E 008°10'0 0.0
2016-Jun-22 11:32N 54°02' E 008°10'0 0.0
2016-Jun-22 10:32N 54°02' E 008°10'0 0.0
2016-Jun-22 09:31N 54°02' E 008°10'0 0.0
2016-Jun-22 08:31N 54°02' E 008°10'0 0.1
2016-Jun-22 07:31N 54°02' E 008°10'0 0.1
2016-Jun-22 06:31N 54°02' E 008°10'0 0.0
2016-Jun-22 05:31N 54°02' E 008°09'0 0.0
2016-Jun-22 04:28N 54°02' E 008°09'0 0.0
2016-Jun-22 03:31N 54°02' E 008°10'0 0.0
2016-Jun-22 02:31N 54°02' E 008°10'0 0.0
2016-Jun-22 01:31N 54°02' E 008°10'0 0.0
2016-Jun-22 00:31N 54°02' E 008°10'0 0.1
2016-Jun-21 23:19N 54°02' E 008°10'0 0.0
2016-Jun-21 22:31N 54°02' E 008°10'0 0.0
2016-Jun-21 21:31N 54°02' E 008°10'0 0.1
2016-Jun-21 20:25N 54°02' E 008°10'0 0.1
2016-Jun-21 19:31N 54°02' E 008°10'0 0.0
2016-Jun-21 18:34N 54°02' E 008°10'0 0.0
2016-Jun-21 17:33N 54°02' E 008°09'0 0.0
2016-Jun-21 16:33N 54°02' E 008°09'0 0.0
2016-Jun-21 15:33N 54°02' E 008°09'0 0.0
2016-Jun-21 14:30N 54°02' E 008°09'0 0.0
2016-Jun-21 13:33N 54°02' E 008°10'0 0.1
2016-Jun-21 12:33N 54°02' E 008°10'0 0.0
2016-Jun-21 11:24N 54°02' E 008°10'0 0.0
2016-Jun-21 10:33N 54°02' E 008°10'0 0.0
2016-Jun-21 09:30N 54°02' E 008°10'0 0.0
2016-Jun-21 08:33N 54°02' E 008°10'0 0.0
2016-Jun-21 07:33N 54°02' E 008°10'0 0.1
2016-Jun-21 06:33N 54°02' E 008°10'0 0.0
2016-Jun-21 04:33N 54°02' E 008°10'0 0.0
2016-Jun-21 03:30N 54°02' E 008°10'0 0.1
2016-Jun-21 02:32N 54°02' E 008°10'0 0.1
2016-Jun-21 01:33N 54°02' E 008°10'0 0.0
2016-Jun-21 00:32N 54°02' E 008°10'0 0.0
2016-Jun-20 23:32N 54°02' E 008°10'0 0.0
2016-Jun-20 22:32N 54°02' E 008°10'0 0.0
2016-Jun-20 21:32N 54°02' E 008°10'0 0.0
2016-Jun-20 20:32N 54°02' E 008°10'0 0.0
2016-Jun-20 19:32N 54°02' E 008°10'0 0.1
2016-Jun-20 18:32N 54°03' E 008°10'0 0.0
2016-Jun-20 17:29N 54°03' E 008°10'0 0.0
2016-Jun-20 16:26N 54°03' E 008°10'0 0.0
2016-Jun-20 15:32N 54°03' E 008°10'0 0.0
2016-Jun-20 14:32N 54°03' E 008°10'0 0.0
2016-Jun-20 13:32N 54°03' E 008°10'0 0.0
2016-Jun-20 12:32N 54°03' E 008°10'0 0.0
2016-Jun-20 11:32N 54°03' E 008°10'0 0.0
2016-Jun-20 10:32N 54°02' E 008°10'0 0.0
2016-Jun-20 09:32N 54°02' E 008°10'0 0.0
2016-Jun-20 08:32N 54°02' E 008°10'0 0.0
2016-Jun-20 07:32N 54°02' E 008°10'0 0.1
2016-Jun-20 06:32N 54°03' E 008°10'0 0.0
2016-Jun-20 05:32N 54°03' E 008°10'0 0.0
2016-Jun-20 04:29N 54°03' E 008°10'0 0.0
2016-Jun-20 03:32N 54°02' E 008°09'0 0.0
2016-Jun-20 02:31N 54°02' E 008°09'0 0.0
2016-Jun-20 01:31N 54°02' E 008°10'0 0.0
2016-Jun-20 00:31N 54°02' E 008°10'0 0.1
2016-Jun-19 23:31N 54°02' E 008°10'0 0.0
2016-Jun-19 22:31N 54°02' E 008°10'0 0.0
2016-Jun-19 21:31N 54°02' E 008°10'0 0.0
2016-Jun-19 20:28N 54°02' E 008°10'0 0.0
2016-Jun-19 19:31N 54°02' E 008°10'0 0.0
2016-Jun-19 18:31N 54°02' E 008°10'0 0.1
2016-Jun-19 17:28N 54°02' E 008°10'0 0.0
2016-Jun-19 16:25N 54°02' E 008°10'0 0.0
2016-Jun-19 15:31N 54°02' E 008°10'0 0.0
2016-Jun-19 14:31N 54°02' E 008°10'0 0.1
2016-Jun-19 13:31N 54°02' E 008°10'0 0.1
2016-Jun-19 12:31N 54°02' E 008°10'0 0.0
2016-Jun-19 11:28N 54°02' E 008°10'0 0.0
2016-Jun-19 10:31N 54°02' E 008°10'0 0.0
2016-Jun-19 09:31N 54°02' E 008°10'0 0.0
2016-Jun-19 08:31N 54°02' E 008°10'0 0.0
2016-Jun-19 07:31N 54°02' E 008°10'0 0.0
2016-Jun-19 06:31N 54°02' E 008°10'0 0.0
2016-Jun-19 05:31N 54°02' E 008°10'0 0.1
2016-Jun-19 04:31N 54°02' E 008°10'0 0.1
2016-Jun-19 03:33N 54°02' E 008°10'0 0.0
2016-Jun-19 02:33N 54°02' E 008°09'0 0.0
2016-Jun-19 01:33N 54°02' E 008°10'0 0.1
2016-Jun-19 00:33N 54°02' E 008°10'0 0.0
2016-Jun-18 23:34N 54°02' E 008°10'0 0.0
2016-Jun-18 22:33N 54°02' E 008°10'0 0.1
2016-Jun-18 21:33N 54°02' E 008°10'0 0.0
2016-Jun-18 20:33N 54°02' E 008°10'0 0.0
2016-Jun-18 19:33N 54°02' E 008°10'0 0.0
2016-Jun-18 18:30N 54°02' E 008°10'0 0.0
2016-Jun-18 17:33N 54°02' E 008°10'0 0.0
2016-Jun-18 16:33N 54°03' E 008°10'4 4.2
2016-Jun-18 15:33N 54°00' E 008°16'1716.5
2016-Jun-18 14:33N 53°54' E 008°42'1514.8
2016-Jun-18 13:34N 53°53' E 009°06'  
Track history (hours):
 
Tides and Currents Weather Stations Pressure Air Temp Water Temp Dewpoint Dewpoint Depression Visibility Wind Speed Wind Dir Waves Ship Positions

Coral Leaf

Last reported at 2016-Jun-28 13:06 UTC. Time now 2016-Jun-28 15:15 UTC.
Position N 57°40' E 010°42'.

Length 108 m; draft 5.3 m.

Type: Ship (hazmat cat A). MMSI: 244036000.

Date/timePositionNaut miles runAvg speedWind from/ knotsBaromVisibWave heightAir tempDewpointWater temp
2016-Jun-28 13:06N 57°40' E 010°42'0 0.0
2016-Jun-28 11:21N 57°40' E 010°42'0 0.0
2016-Jun-28 10:15N 57°40' E 010°42'0 0.0
2016-Jun-28 09:27N 57°40' E 010°42'0 0.0
2016-Jun-28 08:27N 57°40' E 010°42'0 0.0
2016-Jun-28 07:12N 57°40' E 010°42'0 0.0
2016-Jun-28 04:33N 57°40' E 010°42'0 0.0
2016-Jun-28 03:20N 57°40' E 010°42'0 0.0
2016-Jun-27 20:32N 57°40' E 010°42'0 0.1
2016-Jun-27 19:20N 57°40' E 010°42'0 0.0
2016-Jun-27 18:32N 57°40' E 010°42'0 0.0
2016-Jun-27 16:08N 57°40' E 010°42'0 0.0
2016-Jun-27 15:20N 57°40' E 010°42'0 0.0
2016-Jun-27 14:32N 57°40' E 010°42'0 0.0
2016-Jun-27 13:32N 57°40' E 010°42'0 0.0
2016-Jun-27 12:17N 57°40' E 010°42'0 0.0
2016-Jun-27 10:11N 57°40' E 010°42'0 0.0
2016-Jun-27 06:19N 57°40' E 010°42'0 0.0
2016-Jun-27 04:31N 57°40' E 010°42'0 0.0
2016-Jun-27 00:25N 57°40' E 010°42'0 0.0
2016-Jun-26 23:31N 57°40' E 010°42'0 0.1
2016-Jun-26 22:25N 57°40' E 010°42'0 0.0
2016-Jun-26 21:25N 57°40' E 010°42'0 0.0
2016-Jun-26 20:31N 57°40' E 010°42'0 0.1
2016-Jun-26 19:25N 57°40' E 010°42'0 0.0
2016-Jun-26 18:07N 57°40' E 010°42'3 6.1
2016-Jun-26 17:33N 57°43' E 010°45'1212.3
2016-Jun-26 16:33N 57°47' E 010°23'16711.8
2016-Jun-26 02:29N 55°42' E 007°01'8 7.3
2016-Jun-26 01:27N 55°35' E 007°02'6 7.1
2016-Jun-26 00:33N 55°28' E 007°02'7 6.8
2016-Jun-25 23:33N 55°22' E 007°03'7 7.2
2016-Jun-25 22:33N 55°14' E 007°03'7 7.1
2016-Jun-25 21:33N 55°07' E 007°04'7 7.2
2016-Jun-25 20:34N 55°00' E 007°08'7 7.1
2016-Jun-25 19:33N 54°54' E 007°11'7 7.4
2016-Jun-25 18:33N 54°46' E 007°14'7 7.2
2016-Jun-25 17:34N 54°40' E 007°17'7 7.5
2016-Jun-25 16:33N 54°32' E 007°20'8 7.6
2016-Jun-25 15:33N 54°25' E 007°24'7 7.5
2016-Jun-25 14:33N 54°18' E 007°28'7 6.9
2016-Jun-25 13:33N 54°12' E 007°34'7 6.9
2016-Jun-25 12:34N 54°08' E 007°44'6 6.4
2016-Jun-25 11:33N 54°05' E 007°53'6 6.3
2016-Jun-25 10:33N 54°03' E 008°03'4 3.8
2016-Jun-25 09:33N 54°02' E 008°10'0 0.0
2016-Jun-25 08:33N 54°02' E 008°09'0 0.0
2016-Jun-25 07:33N 54°02' E 008°09'0 0.0
2016-Jun-25 06:33N 54°02' E 008°09'0 0.0
2016-Jun-25 05:33N 54°02' E 008°09'0 0.0
2016-Jun-25 04:33N 54°02' E 008°09'0 0.1
2016-Jun-25 03:33N 54°02' E 008°10'0 0.1
2016-Jun-25 02:33N 54°02' E 008°10'0 0.1
2016-Jun-25 01:33N 54°02' E 008°10'0 0.0
2016-Jun-25 00:33N 54°02' E 008°10'0 0.0
2016-Jun-24 23:33N 54°02' E 008°10'0 0.0
2016-Jun-24 22:32N 54°02' E 008°10'0 0.1
2016-Jun-24 21:32N 54°02' E 008°10'0 0.0
2016-Jun-24 20:32N 54°02' E 008°10'0 0.0
2016-Jun-24 19:29N 54°02' E 008°09'0 0.0
2016-Jun-24 18:32N 54°02' E 008°10'0 0.0
2016-Jun-24 17:32N 54°02' E 008°10'0 0.0
2016-Jun-24 16:32N 54°02' E 008°09'0 0.1
2016-Jun-24 15:29N 54°02' E 008°10'0 0.1
2016-Jun-24 14:32N 54°02' E 008°10'0 0.0
2016-Jun-24 13:32N 54°02' E 008°10'0 0.0
2016-Jun-24 12:32N 54°02' E 008°10'0 0.0
2016-Jun-24 11:32N 54°02' E 008°10'0 0.0
2016-Jun-24 10:32N 54°02' E 008°10'0 0.0
2016-Jun-24 09:32N 54°02' E 008°10'0 0.1
2016-Jun-24 08:32N 54°02' E 008°10'0 0.0
2016-Jun-24 07:29N 54°02' E 008°10'0 0.0
2016-Jun-24 04:31N 54°02' E 008°09'0 0.0
2016-Jun-24 03:31N 54°02' E 008°10'0 0.0
2016-Jun-24 02:28N 54°02' E 008°10'0 0.0
2016-Jun-24 01:31N 54°02' E 008°10'0 0.1
2016-Jun-24 00:31N 54°02' E 008°10'0 0.0
2016-Jun-23 23:32N 54°02' E 008°10'0 0.0
2016-Jun-23 22:31N 54°02' E 008°10'0 0.1
2016-Jun-23 21:28N 54°02' E 008°10'0 0.0
2016-Jun-23 20:28N 54°02' E 008°10'0 0.0
2016-Jun-23 19:31N 54°02' E 008°10'0 0.0
2016-Jun-23 18:32N 54°02' E 008°10'0 0.0
2016-Jun-23 17:31N 54°02' E 008°10'0 0.0
2016-Jun-23 16:31N 54°02' E 008°09'0 0.0
2016-Jun-23 15:33N 54°02' E 008°10'0 0.1
2016-Jun-23 14:33N 54°02' E 008°10'0 0.1
2016-Jun-23 13:33N 54°02' E 008°10'0 0.0
2016-Jun-23 12:33N 54°02' E 008°10'0 0.0
2016-Jun-23 11:33N 54°02' E 008°10'0 0.0
2016-Jun-23 10:33N 54°02' E 008°10'0 0.0
2016-Jun-23 09:34N 54°02' E 008°10'0 0.2
2016-Jun-23 08:33N 54°02' E 008°09'0 0.0
2016-Jun-23 07:33N 54°02' E 008°09'0 0.0
2016-Jun-23 05:33N 54°02' E 008°09'0 0.0
2016-Jun-23 04:27N 54°02' E 008°09'0 0.0
2016-Jun-23 03:33N 54°02' E 008°09'0 0.0
2016-Jun-23 02:33N 54°02' E 008°09'0 0.0
2016-Jun-23 01:30N 54°02' E 008°10'0 0.0
2016-Jun-23 00:29N 54°02' E 008°10'0 0.1
2016-Jun-22 23:32N 54°02' E 008°10'0 0.0
2016-Jun-22 22:32N 54°02' E 008°10'0 0.0
2016-Jun-22 21:32N 54°02' E 008°10'0 0.1
2016-Jun-22 20:32N 54°02' E 008°10'0 0.0
2016-Jun-22 19:32N 54°02' E 008°09'0 0.0
2016-Jun-22 18:32N 54°02' E 008°09'0 0.0
2016-Jun-22 17:32N 54°02' E 008°09'0 0.0
2016-Jun-22 16:32N 54°02' E 008°09'0 0.0
2016-Jun-22 15:32N 54°02' E 008°09'0 0.0
2016-Jun-22 14:32N 54°02' E 008°09'0 0.1
2016-Jun-22 13:32N 54°02' E 008°10'0 0.0
2016-Jun-22 12:32N 54°02' E 008°10'0 0.0
2016-Jun-22 11:32N 54°02' E 008°10'0 0.0
2016-Jun-22 10:32N 54°02' E 008°10'0 0.0
2016-Jun-22 09:31N 54°02' E 008°10'0 0.0
2016-Jun-22 08:31N 54°02' E 008°10'0 0.1
2016-Jun-22 07:31N 54°02' E 008°10'0 0.1
2016-Jun-22 06:31N 54°02' E 008°10'0 0.0
2016-Jun-22 05:31N 54°02' E 008°09'0 0.0
2016-Jun-22 04:28N 54°02' E 008°09'0 0.0
2016-Jun-22 03:31N 54°02' E 008°10'0 0.0
2016-Jun-22 02:31N 54°02' E 008°10'0 0.0
2016-Jun-22 01:31N 54°02' E 008°10'0 0.0
2016-Jun-22 00:31N 54°02' E 008°10'0 0.1
2016-Jun-21 23:19N 54°02' E 008°10'0 0.0
2016-Jun-21 22:31N 54°02' E 008°10'0 0.0
2016-Jun-21 21:31N 54°02' E 008°10'0 0.1
2016-Jun-21 20:25N 54°02' E 008°10'0 0.1
2016-Jun-21 19:31N 54°02' E 008°10'0 0.0
2016-Jun-21 18:34N 54°02' E 008°10'0 0.0
2016-Jun-21 17:33N 54°02' E 008°09'0 0.0
2016-Jun-21 16:33N 54°02' E 008°09'0 0.0
2016-Jun-21 15:33N 54°02' E 008°09'0 0.0
2016-Jun-21 14:30N 54°02' E 008°09'0 0.0
2016-Jun-21 13:33N 54°02' E 008°10'0 0.1
2016-Jun-21 12:33N 54°02' E 008°10'0 0.0
2016-Jun-21 11:24N 54°02' E 008°10'0 0.0
2016-Jun-21 10:33N 54°02' E 008°10'0 0.0
2016-Jun-21 09:30N 54°02' E 008°10'0 0.0
2016-Jun-21 08:33N 54°02' E 008°10'0 0.0
2016-Jun-21 07:33N 54°02' E 008°10'0 0.1
2016-Jun-21 06:33N 54°02' E 008°10'0 0.0
2016-Jun-21 04:33N 54°02' E 008°10'0 0.0
2016-Jun-21 03:30N 54°02' E 008°10'0 0.1
2016-Jun-21 02:32N 54°02' E 008°10'0 0.1
2016-Jun-21 01:33N 54°02' E 008°10'0 0.0
2016-Jun-21 00:32N 54°02' E 008°10'0 0.0
2016-Jun-20 23:32N 54°02' E 008°10'0 0.0
2016-Jun-20 22:32N 54°02' E 008°10'0 0.0
2016-Jun-20 21:32N 54°02' E 008°10'0 0.0
2016-Jun-20 20:32N 54°02' E 008°10'0 0.0
2016-Jun-20 19:32N 54°02' E 008°10'0 0.1
2016-Jun-20 18:32N 54°03' E 008°10'0 0.0
2016-Jun-20 17:29N 54°03' E 008°10'0 0.0
2016-Jun-20 16:26N 54°03' E 008°10'0 0.0
2016-Jun-20 15:32N 54°03' E 008°10'0 0.0
2016-Jun-20 14:32N 54°03' E 008°10'0 0.0
2016-Jun-20 13:32N 54°03' E 008°10'0 0.0
2016-Jun-20 12:32N 54°03' E 008°10'0 0.0
2016-Jun-20 11:32N 54°03' E 008°10'0 0.0
2016-Jun-20 10:32N 54°02' E 008°10'0 0.0
2016-Jun-20 09:32N 54°02' E 008°10'0 0.0
2016-Jun-20 08:32N 54°02' E 008°10'0 0.0
2016-Jun-20 07:32N 54°02' E 008°10'0 0.1
2016-Jun-20 06:32N 54°03' E 008°10'0 0.0
2016-Jun-20 05:32N 54°03' E 008°10'0 0.0
2016-Jun-20 04:29N 54°03' E 008°10'0 0.0
2016-Jun-20 03:32N 54°02' E 008°09'0 0.0
2016-Jun-20 02:31N 54°02' E 008°09'0 0.0
2016-Jun-20 01:31N 54°02' E 008°10'0 0.0
2016-Jun-20 00:31N 54°02' E 008°10'0 0.1
2016-Jun-19 23:31N 54°02' E 008°10'0 0.0
2016-Jun-19 22:31N 54°02' E 008°10'0 0.0
2016-Jun-19 21:31N 54°02' E 008°10'0 0.0
2016-Jun-19 20:28N 54°02' E 008°10'0 0.0
2016-Jun-19 19:31N 54°02' E 008°10'0 0.0
2016-Jun-19 18:31N 54°02' E 008°10'0 0.1
2016-Jun-19 17:28N 54°02' E 008°10'0 0.0
2016-Jun-19 16:25N 54°02' E 008°10'0 0.0
2016-Jun-19 15:31N 54°02' E 008°10'0 0.0
2016-Jun-19 14:31N 54°02' E 008°10'0 0.1
2016-Jun-19 13:31N 54°02' E 008°10'0 0.1
2016-Jun-19 12:31N 54°02' E 008°10'0 0.0
2016-Jun-19 11:28N 54°02' E 008°10'0 0.0
2016-Jun-19 10:31N 54°02' E 008°10'0 0.0
2016-Jun-19 09:31N 54°02' E 008°10'0 0.0
2016-Jun-19 08:31N 54°02' E 008°10'0 0.0
2016-Jun-19 07:31N 54°02' E 008°10'0 0.0
2016-Jun-19 06:31N 54°02' E 008°10'0 0.0
2016-Jun-19 05:31N 54°02' E 008°10'0 0.1
2016-Jun-19 04:31N 54°02' E 008°10'0 0.1
2016-Jun-19 03:33N 54°02' E 008°10'0 0.0
2016-Jun-19 02:33N 54°02' E 008°09'0 0.0
2016-Jun-19 01:33N 54°02' E 008°10'0 0.1
2016-Jun-19 00:33N 54°02' E 008°10'0 0.0
2016-Jun-18 23:34N 54°02' E 008°10'0 0.0
2016-Jun-18 22:33N 54°02' E 008°10'0 0.1
2016-Jun-18 21:33N 54°02' E 008°10'0 0.0
2016-Jun-18 20:33N 54°02' E 008°10'0 0.0
2016-Jun-18 19:33N 54°02' E 008°10'0 0.0
2016-Jun-18 18:30N 54°02' E 008°10'0 0.0
2016-Jun-18 17:33N 54°02' E 008°10'0 0.0
2016-Jun-18 16:33N 54°03' E 008°10'4 4.2
2016-Jun-18 15:33N 54°00' E 008°16'1716.5
2016-Jun-18 14:33N 53°54' E 008°42'1514.8
2016-Jun-18 13:34N 53°53' E 009°06'  

Dump ship's entire track history